RYR8598 LEBL-LICR
Flight info
| Callsign | RYR8598 |
|---|---|
| Flight time | N/A |
| Altitude | 37000 |
| Route | DIPES DCT TOSNU DCT LAPIT DCT OSPOK DCT NOLVI DCT ORKUM DCT ELSAG DCT ALG DCT ROXAN DCT DIRED DCT PIGER L869 PEROS |
| Aircraft | B738/M-SDE3FGILRWY/SB1 |
Departure
| Time | N/A |
|---|---|
| Airport | Josep Tarradellas Barcelona-El Prat Airport (LEBL) |
Arrival
| Time | 2026-04-15 15:22 |
|---|---|
| Airport | Reggio Calabria Airport (LICR) |
| Time | Latitude | Longitude | Altitude | Speed | Heading |
|---|---|---|---|---|---|
| 2026-04-15 14:34 | 40.72730 | 11.49863 | 38981 ft | 451 kts | 114° |
| 2026-04-15 14:36 | 40.71308 | 11.53725 | 38980 ft | 451 kts | 114° |
| 2026-04-15 14:36 | 40.68587 | 11.61133 | 38974 ft | 452 kts | 114° |
| 2026-04-15 14:37 | 40.65838 | 11.68608 | 38975 ft | 453 kts | 114° |
| 2026-04-15 14:37 | 40.63088 | 11.76066 | 38970 ft | 453 kts | 114° |
| 2026-04-15 14:38 | 40.60332 | 11.83516 | 38968 ft | 452 kts | 114° |
| 2026-04-15 14:38 | 40.57595 | 11.90895 | 38964 ft | 451 kts | 114° |
| 2026-04-15 14:39 | 40.54840 | 11.98307 | 38965 ft | 450 kts | 114° |
| 2026-04-15 14:39 | 40.52088 | 12.05686 | 38966 ft | 449 kts | 114° |
| 2026-04-15 14:40 | 40.49339 | 12.13042 | 38960 ft | 448 kts | 114° |
| 2026-04-15 14:40 | 40.46592 | 12.20377 | 38961 ft | 447 kts | 114° |
| 2026-04-15 14:41 | 40.43843 | 12.27695 | 38955 ft | 447 kts | 114° |
| 2026-04-15 14:41 | 40.41092 | 12.35003 | 38958 ft | 446 kts | 115° |
| 2026-04-15 14:42 | 40.38335 | 12.42306 | 38960 ft | 447 kts | 115° |
| 2026-04-15 14:42 | 40.35570 | 12.49615 | 38956 ft | 447 kts | 115° |
| 2026-04-15 14:43 | 40.32815 | 12.56880 | 38954 ft | 448 kts | 115° |
| 2026-04-15 14:43 | 40.30031 | 12.64201 | 38959 ft | 450 kts | 115° |
| 2026-04-15 14:44 | 40.27232 | 12.71542 | 38955 ft | 451 kts | 116° |
| 2026-04-15 14:44 | 40.24427 | 12.78883 | 38954 ft | 452 kts | 116° |
| 2026-04-15 14:45 | 40.21608 | 12.86243 | 38952 ft | 452 kts | 116° |
| 2026-04-15 14:45 | 40.18782 | 12.93601 | 38942 ft | 453 kts | 116° |
| 2026-04-15 14:46 | 40.15948 | 13.00960 | 38942 ft | 452 kts | 116° |
| 2026-04-15 14:46 | 40.13117 | 13.08295 | 38949 ft | 452 kts | 116° |
| 2026-04-15 14:47 | 40.10287 | 13.15610 | 38947 ft | 450 kts | 116° |
| 2026-04-15 14:47 | 40.07462 | 13.22892 | 38942 ft | 449 kts | 116° |
| 2026-04-15 14:48 | 40.04645 | 13.30139 | 38943 ft | 447 kts | 116° |
| 2026-04-15 14:48 | 40.01996 | 13.36936 | 38936 ft | 445 kts | 116° |
| 2026-04-15 14:49 | 39.99192 | 13.44112 | 38932 ft | 443 kts | 117° |
| 2026-04-15 14:49 | 39.96398 | 13.51250 | 38935 ft | 441 kts | 117° |
| 2026-04-15 14:50 | 39.93606 | 13.58363 | 38939 ft | 440 kts | 117° |
| 2026-04-15 14:50 | 39.90812 | 13.65464 | 38942 ft | 440 kts | 117° |
| 2026-04-15 14:51 | 39.88010 | 13.72568 | 38938 ft | 441 kts | 117° |
| 2026-04-15 14:51 | 39.85199 | 13.79681 | 38943 ft | 443 kts | 117° |
| 2026-04-15 14:52 | 39.82369 | 13.86824 | 38946 ft | 445 kts | 117° |
| 2026-04-15 14:52 | 39.79519 | 13.93998 | 38949 ft | 448 kts | 117° |
| 2026-04-15 14:53 | 39.76650 | 14.01205 | 38934 ft | 450 kts | 117° |
| 2026-04-15 14:53 | 39.73760 | 14.08448 | 38940 ft | 453 kts | 117° |
| 2026-04-15 14:54 | 39.70849 | 14.15724 | 38934 ft | 455 kts | 118° |
| 2026-04-15 14:54 | 39.67943 | 14.22973 | 38938 ft | 457 kts | 118° |
| 2026-04-15 14:55 | 39.64998 | 14.30299 | 38934 ft | 458 kts | 118° |
| 2026-04-15 14:55 | 39.63520 | 14.33970 | 38705 ft | 463 kts | 118° |
| 2026-04-15 14:55 | 39.62022 | 14.37688 | 38128 ft | 464 kts | 118° |
| 2026-04-15 14:55 | 39.60533 | 14.41379 | 37673 ft | 458 kts | 118° |
| 2026-04-15 14:56 | 39.59068 | 14.45009 | 37255 ft | 452 kts | 118° |
| 2026-04-15 14:56 | 39.57615 | 14.48599 | 36864 ft | 446 kts | 118° |
| 2026-04-15 14:56 | 39.56044 | 14.52029 | 36440 ft | 440 kts | 126° |
| 2026-04-15 14:56 | 39.54125 | 14.55067 | 36125 ft | 432 kts | 133° |
| 2026-04-15 14:57 | 39.52135 | 14.57900 | 35711 ft | 428 kts | 133° |
| 2026-04-15 14:57 | 39.50128 | 14.60724 | 35300 ft | 424 kts | 133° |
| 2026-04-15 14:57 | 39.48139 | 14.63522 | 34891 ft | 421 kts | 133° |
| 2026-04-15 14:57 | 39.46169 | 14.66305 | 34482 ft | 417 kts | 133° |
| 2026-04-15 14:58 | 39.44221 | 14.69068 | 34067 ft | 414 kts | 133° |
| 2026-04-15 14:58 | 39.42916 | 14.70925 | 33751 ft | 412 kts | 133° |
| 2026-04-15 14:58 | 39.40998 | 14.73659 | 33293 ft | 409 kts | 133° |
| 2026-04-15 14:58 | 39.39123 | 14.76334 | 32867 ft | 405 kts | 133° |
| 2026-04-15 14:59 | 39.37219 | 14.79049 | 32450 ft | 400 kts | 133° |
| 2026-04-15 14:59 | 39.35382 | 14.81668 | 32048 ft | 396 kts | 134° |
| 2026-04-15 14:59 | 39.33540 | 14.84292 | 31658 ft | 392 kts | 134° |
| 2026-04-15 14:59 | 39.31715 | 14.86889 | 31262 ft | 388 kts | 134° |
| 2026-04-15 15:00 | 39.29909 | 14.89458 | 30882 ft | 384 kts | 135° |
| 2026-04-15 15:00 | 39.28120 | 14.92000 | 30504 ft | 381 kts | 135° |
| 2026-04-15 15:00 | 39.26339 | 14.94527 | 30128 ft | 377 kts | 135° |
| 2026-04-15 15:00 | 39.24583 | 14.97017 | 29707 ft | 374 kts | 135° |
| 2026-04-15 15:01 | 39.22843 | 14.99483 | 29292 ft | 369 kts | 135° |
| 2026-04-15 15:01 | 39.21123 | 15.01917 | 28896 ft | 364 kts | 135° |
| 2026-04-15 15:01 | 39.19450 | 15.04283 | 28517 ft | 360 kts | 135° |
| 2026-04-15 15:01 | 39.17772 | 15.06656 | 28128 ft | 356 kts | 135° |
| 2026-04-15 15:02 | 39.16115 | 15.08997 | 27735 ft | 352 kts | 135° |
| 2026-04-15 15:02 | 39.14450 | 15.11345 | 27364 ft | 348 kts | 135° |
| 2026-04-15 15:02 | 39.12845 | 15.13609 | 26991 ft | 345 kts | 135° |
| 2026-04-15 15:02 | 39.11234 | 15.15879 | 26610 ft | 342 kts | 135° |
| 2026-04-15 15:03 | 39.09635 | 15.18129 | 26241 ft | 339 kts | 135° |
| 2026-04-15 15:03 | 39.08053 | 15.20356 | 25879 ft | 336 kts | 135° |
| 2026-04-15 15:03 | 39.06826 | 15.22081 | 25604 ft | 334 kts | 135° |
| 2026-04-15 15:03 | 39.05263 | 15.24277 | 25249 ft | 331 kts | 135° |
| 2026-04-15 15:04 | 39.03713 | 15.26454 | 24902 ft | 329 kts | 135° |
| 2026-04-15 15:04 | 39.02173 | 15.28616 | 24545 ft | 327 kts | 135° |
| 2026-04-15 15:04 | 39.00642 | 15.30762 | 24195 ft | 325 kts | 135° |
| 2026-04-15 15:04 | 38.99120 | 15.32895 | 23848 ft | 323 kts | 135° |
| 2026-04-15 15:05 | 38.97603 | 15.35021 | 23502 ft | 322 kts | 135° |
| 2026-04-15 15:05 | 38.96096 | 15.37143 | 23099 ft | 320 kts | 135° |
| 2026-04-15 15:05 | 38.94604 | 15.39254 | 22694 ft | 319 kts | 135° |
| 2026-04-15 15:05 | 38.93113 | 15.41363 | 22293 ft | 317 kts | 135° |
| 2026-04-15 15:06 | 38.90138 | 15.45509 | 21531 ft | 314 kts | 135° |
| 2026-04-15 15:06 | 38.88671 | 15.47547 | 21072 ft | 308 kts | 135° |
| 2026-04-15 15:06 | 38.87235 | 15.49543 | 20453 ft | 308 kts | 135° |
| 2026-04-15 15:07 | 38.85779 | 15.51566 | 19847 ft | 308 kts | 135° |
| 2026-04-15 15:07 | 38.84333 | 15.53574 | 19306 ft | 307 kts | 135° |
| 2026-04-15 15:07 | 38.82887 | 15.55583 | 18774 ft | 304 kts | 135° |
| 2026-04-15 15:07 | 38.81455 | 15.57572 | 18261 ft | 303 kts | 135° |
| 2026-04-15 15:08 | 38.80031 | 15.59549 | 17685 ft | 301 kts | 134° |
| 2026-04-15 15:08 | 38.78614 | 15.61515 | 17133 ft | 298 kts | 134° |
| 2026-04-15 15:08 | 38.77210 | 15.63462 | 16591 ft | 296 kts | 134° |
| 2026-04-15 15:08 | 38.75819 | 15.65390 | 16059 ft | 294 kts | 134° |
| 2026-04-15 15:09 | 38.74436 | 15.67305 | 15539 ft | 292 kts | 134° |
| 2026-04-15 15:09 | 38.73061 | 15.69208 | 15022 ft | 290 kts | 134° |
| 2026-04-15 15:09 | 38.71698 | 15.71094 | 14522 ft | 288 kts | 134° |
| 2026-04-15 15:09 | 38.70634 | 15.72565 | 14143 ft | 286 kts | 134° |
| 2026-04-15 15:10 | 38.69299 | 15.74411 | 13648 ft | 284 kts | 134° |
| 2026-04-15 15:10 | 38.67953 | 15.76269 | 13079 ft | 283 kts | 134° |
| 2026-04-15 15:10 | 38.66866 | 15.77769 | 12656 ft | 282 kts | 134° |
| 2026-04-15 15:10 | 38.65534 | 15.79596 | 12145 ft | 279 kts | 136° |
| 2026-04-15 15:11 | 38.63930 | 15.80932 | 11595 ft | 277 kts | 161° |
| 2026-04-15 15:11 | 38.62044 | 15.81340 | 11104 ft | 276 kts | 180° |
| 2026-04-15 15:11 | 38.60147 | 15.80951 | 10594 ft | 277 kts | 192° |
| 2026-04-15 15:11 | 38.58283 | 15.80348 | 10123 ft | 276 kts | 192° |
| 2026-04-15 15:12 | 38.56431 | 15.79738 | 9615 ft | 275 kts | 192° |
| 2026-04-15 15:12 | 38.54596 | 15.79149 | 9130 ft | 272 kts | 192° |
| 2026-04-15 15:12 | 38.52765 | 15.78573 | 8677 ft | 269 kts | 192° |
| 2026-04-15 15:12 | 38.50957 | 15.78009 | 8196 ft | 267 kts | 191° |
| 2026-04-15 15:13 | 38.49160 | 15.77450 | 7737 ft | 265 kts | 191° |
| 2026-04-15 15:13 | 38.47369 | 15.76890 | 7362 ft | 266 kts | 191° |
| 2026-04-15 15:13 | 38.45565 | 15.76325 | 7049 ft | 265 kts | 191° |
| 2026-04-15 15:13 | 38.43778 | 15.75765 | 6748 ft | 264 kts | 191° |
| 2026-04-15 15:14 | 38.41996 | 15.75208 | 6450 ft | 263 kts | 191° |
| 2026-04-15 15:14 | 38.40217 | 15.74651 | 6146 ft | 262 kts | 191° |
| 2026-04-15 15:14 | 38.38465 | 15.74104 | 5845 ft | 261 kts | 191° |
| 2026-04-15 15:14 | 38.36703 | 15.73554 | 5535 ft | 260 kts | 191° |
| 2026-04-15 15:15 | 38.34952 | 15.73008 | 5243 ft | 258 kts | 191° |
| 2026-04-15 15:15 | 38.33220 | 15.72459 | 5055 ft | 253 kts | 194° |
| 2026-04-15 15:15 | 38.31710 | 15.71378 | 4960 ft | 250 kts | 219° |
| 2026-04-15 15:15 | 38.30599 | 15.69689 | 4847 ft | 246 kts | 231° |
| 2026-04-15 15:16 | 38.29659 | 15.67908 | 4719 ft | 239 kts | 233° |
| 2026-04-15 15:16 | 38.28738 | 15.66126 | 4449 ft | 241 kts | 233° |
| 2026-04-15 15:16 | 38.27824 | 15.64377 | 4271 ft | 233 kts | 233° |
| 2026-04-15 15:16 | 38.26934 | 15.62697 | 4083 ft | 224 kts | 233° |
| 2026-04-15 15:17 | 38.26073 | 15.61083 | 3921 ft | 216 kts | 232° |
| 2026-04-15 15:17 | 38.25240 | 15.59530 | 3782 ft | 207 kts | 232° |
| 2026-04-15 15:17 | 38.24458 | 15.58074 | 3663 ft | 195 kts | 231° |
| 2026-04-15 15:17 | 38.23685 | 15.56669 | 3611 ft | 193 kts | 226° |
| 2026-04-15 15:18 | 38.22574 | 15.55865 | 3503 ft | 183 kts | 180° |
| 2026-04-15 15:18 | 38.21345 | 15.56138 | 3317 ft | 182 kts | 161° |
| 2026-04-15 15:18 | 38.20154 | 15.56683 | 3053 ft | 181 kts | 158° |
| 2026-04-15 15:18 | 38.19001 | 15.57300 | 2797 ft | 180 kts | 153° |
| 2026-04-15 15:19 | 38.17890 | 15.58020 | 2526 ft | 178 kts | 152° |
| 2026-04-15 15:19 | 38.16793 | 15.58750 | 2260 ft | 178 kts | 152° |
| 2026-04-15 15:19 | 38.15710 | 15.59468 | 1986 ft | 172 kts | 150° |
| 2026-04-15 15:19 | 38.14664 | 15.60162 | 1746 ft | 168 kts | 149° |
| 2026-04-15 15:20 | 38.13655 | 15.60828 | 1555 ft | 156 kts | 148° |
| 2026-04-15 15:20 | 38.12706 | 15.61458 | 1321 ft | 150 kts | 149° |
| 2026-04-15 15:20 | 38.11806 | 15.62056 | 1078 ft | 141 kts | 150° |
| 2026-04-15 15:20 | 38.10943 | 15.62630 | 902 ft | 139 kts | 151° |
| 2026-04-15 15:21 | 38.10110 | 15.63209 | 777 ft | 135 kts | 150° |
| 2026-04-15 15:21 | 38.09281 | 15.63758 | 616 ft | 135 kts | 152° |
| 2026-04-15 15:21 | 38.08454 | 15.64288 | 287 ft | 132 kts | 152° |
| 2026-04-15 15:21 | 38.07657 | 15.64810 | 66 ft | 120 kts | 153° |
| 2026-04-15 15:22 | 38.07075 | 15.65187 | 40 ft | 63 kts | 153° |
| 2026-04-15 15:22 | 38.06788 | 15.65373 | 33 ft | 41 kts | 153° |
| 2026-04-15 15:22 | 38.06561 | 15.65521 | 32 ft | 26 kts | 153° |
| 2026-04-15 15:22 | 38.06486 | 15.65638 | 32 ft | 13 kts | 141° |
| 2026-04-15 15:23 | 38.06451 | 15.65614 | 33 ft | 6 kts | 270° |
| 2026-04-15 15:23 | 38.06487 | 15.65568 | 32 ft | 9 kts | 332° |
| 2026-04-15 15:23 | 38.06556 | 15.65525 | 30 ft | 13 kts | 334° |
| 2026-04-15 15:23 | 38.06651 | 15.65463 | 32 ft | 18 kts | 333° |
| 2026-04-15 15:24 | 38.06773 | 15.65385 | 33 ft | 22 kts | 333° |
| 2026-04-15 15:24 | 38.06916 | 15.65292 | 35 ft | 24 kts | 333° |
| 2026-04-15 15:24 | 38.07075 | 15.65189 | 39 ft | 26 kts | 333° |
| 2026-04-15 15:24 | 38.07235 | 15.65086 | 43 ft | 20 kts | 333° |
| 2026-04-15 15:25 | 38.07302 | 15.65132 | 48 ft | 11 kts | 63° |
| 2026-04-15 15:25 | 38.07338 | 15.65221 | 48 ft | 11 kts | 62° |
| 2026-04-15 15:25 | 38.07364 | 15.65286 | 48 ft | 1 kts | 69° |
| 2026-04-15 15:25 | 38.07364 | 15.65287 | 48 ft | 0 kts | 76° |
| 2026-04-15 15:26 | 38.07360 | 15.65295 | 48 ft | 2 kts | 115° |
| 2026-04-15 15:26 | 38.07358 | 15.65300 | 48 ft | 0 kts | 120° |